Time,TemperatureF,DewpointF,PressureIn,WindDirection,WindDirectionDegrees,WindSpeedMPH,WindSpeedGustMPH,Humidity,HourlyPrecipIn,Conditions,Clouds,dailyrainin,SoftwareType,DateUTC
2013-02-06 00:00:00,42.0,39.0,29.36,WSW,255,3.5,3.5,89,0.00,CLR,,0.13,WeatherDisplay:10.37,2013-02-06 00:00:00,
2013-02-06 00:05:00,42.0,39.0,29.36,North,354,4.6,4.6,89,0.00,CLR,,0.13,WeatherDisplay:10.37,2013-02-06 00:05:00,
2013-02-06 00:10:00,42.1,38.8,29.36,West,264,3.5,3.5,88,0.00,RA,,0.00,WeatherDisplay:10.37,2013-02-06 00:10:00,
2013-02-06 00:15:00,42.2,38.9,29.36,NW,307,3.5,3.5,88,0.00,RA,,0.00,WeatherDisplay:10.37,2013-02-06 00:15:00,
2013-02-06 00:20:00,42.3,39.0,29.36,West,274,5.8,5.8,88,0.00,CLR,,0.00,WeatherDisplay:10.37,2013-02-06 00:20:00,
2013-02-06 00:25:00,42.3,39.0,29.36,WNW,290,3.5,3.5,88,0.00,CLR,,0.00,WeatherDisplay:10.37,2013-02-06 00:25:00,
2013-02-06 00:30:00,42.3,39.0,29.37,SW,231,4.6,4.6,88,0.00,CLR,,0.00,WeatherDisplay:10.37,2013-02-06 00:30:00,
2013-02-06 00:35:00,42.2,38.9,29.37,West,270,4.6,4.6,88,0.00,CLR,,0.00,WeatherDisplay:10.37,2013-02-06 00:35:00,
2013-02-06 00:40:00,42.1,38.8,29.37,West,280,2.3,2.3,88,0.00,CLR,,0.00,WeatherDisplay:10.37,2013-02-06 00:40:00,
2013-02-06 00:45:00,42.0,38.7,29.37,WNW,290,6.9,6.9,88,0.00,CLR,,0.00,WeatherDisplay:10.37,2013-02-06 00:45:00,
2013-02-06 00:50:00,42.0,38.7,29.37,North,356,3.5,3.5,88,0.00,CLR,,0.00,WeatherDisplay:10.37,2013-02-06 00:50:00,
2013-02-06 00:55:00,41.9,38.9,29.37,NW,309,4.6,4.6,89,0.00,CLR,,0.00,WeatherDisplay:10.37,2013-02-06 00:55:00,
2013-02-06 01:00:00,42.0,39.0,29.37,WSW,246,6.9,6.9,89,0.00,CLR,,0.00,WeatherDisplay:10.37,2013-02-06 01:00:00,
2013-02-06 01:05:00,42.1,38.8,29.37,WNW,293,6.9,6.9,88,0.00,CLR,,0.00,WeatherDisplay:10.37,2013-02-06 01:05:00,
2013-02-06 01:10:00,42.1,38.8,29.37,West,266,4.6,4.6,88,0.00,CLR,,0.00,WeatherDisplay:10.37,2013-02-06 01:10:00,
2013-02-06 01:15:00,42.2,38.9,29.38,WNW,293,3.5,3.5,88,0.00,CLR,,0.00,WeatherDisplay:10.37,2013-02-06 01:15:00,
2013-02-06 01:20:00,42.1,38.8,29.38,WSW,253,2.3,2.3,88,0.00,CLR,,0.00,WeatherDisplay:10.37,2013-02-06 01:20:00,
2013-02-06 01:25:00,42.1,39.1,29.38,WSW,242,3.5,3.5,89,0.00,CLR,,0.00,WeatherDisplay:10.37,2013-02-06 01:25:00,
2013-02-06 01:30:00,42.1,39.1,29.38,WNW,284,3.5,3.5,89,0.00,CLR,,0.00,WeatherDisplay:10.37,2013-02-06 01:30:00,
2013-02-06 01:35:00,42.0,39.0,29.38,WSW,252,2.3,2.3,89,0.00,CLR,,0.00,WeatherDisplay:10.37,2013-02-06 01:35:00,
2013-02-06 01:40:00,42.0,39.0,29.39,North,359,5.8,5.8,89,0.00,CLR,,0.00,WeatherDisplay:10.37,2013-02-06 01:40:00,
2013-02-06 01:45:00,41.9,38.9,29.39,WNW,282,3.5,3.5,89,0.00,CLR,,0.00,WeatherDisplay:10.37,2013-02-06 01:45:00,
2013-02-06 01:50:00,42.0,39.0,29.39,WNW,301,3.5,3.5,89,0.00,CLR,,0.00,WeatherDisplay:10.37,2013-02-06 01:50:00,
2013-02-06 01:55:00,42.2,38.9,29.39,ENE,64,1.1,1.1,88,0.00,CLR,,0.00,WeatherDisplay:10.37,2013-02-06 01:55:00,
2013-02-06 02:00:00,42.2,38.9,29.39,West,260,1.1,1.1,88,0.00,CLR,,0.00,WeatherDisplay:10.37,2013-02-06 02:00:00,
2013-02-06 02:05:00,42.3,39.3,29.39,West,266,3.5,3.5,89,0.01,RA,,0.01,WeatherDisplay:10.37,2013-02-06 02:05:00,
2013-02-06 02:10:00,42.1,39.4,29.39,West,267,2.3,2.3,90,0.02,RA,,0.02,WeatherDisplay:10.37,2013-02-06 02:10:00,
2013-02-06 02:15:00,41.9,39.2,29.39,WSW,246,2.3,2.3,90,0.02,RA,,0.02,WeatherDisplay:10.37,2013-02-06 02:15:00,
2013-02-06 02:20:00,41.8,39.1,29.39,WNW,290,4.6,4.6,90,0.02,,,0.02,WeatherDisplay:10.37,2013-02-06 02:20:00,
2013-02-06 02:25:00,41.7,39.3,29.40,NW,314,1.0,1.0,91,0.02,CLR,,0.02,WeatherDisplay:10.37,2013-02-06 02:25:00,
2013-02-06 02:30:00,41.6,39.2,29.40,NNW,328,3.5,3.5,91,0.02,RA,,0.02,WeatherDisplay:10.37,2013-02-06 02:30:00,
2013-02-06 02:35:00,41.5,39.1,29.40,NNW,338,2.3,2.3,91,0.02,RA,,0.02,WeatherDisplay:10.37,2013-02-06 02:35:00,
2013-02-06 02:40:00,41.3,39.2,29.40,West,274,1.1,0.0,92,0.02,,,0.02,WeatherDisplay:10.37,2013-02-06 02:40:00,
2013-02-06 02:45:00,41.3,39.4,29.41,West,276,1.1,1.1,93,0.04,RA,,0.04,WeatherDisplay:10.37,2013-02-06 02:45:00,
2013-02-06 02:50:00,41.2,39.1,29.41,WSW,250,4.6,4.6,92,0.04,RA,,0.04,WeatherDisplay:10.37,2013-02-06 02:50:00,
2013-02-06 02:55:00,41.1,39.0,29.41,ENE,68,6.9,6.9,92,0.04,,,0.04,WeatherDisplay:10.37,2013-02-06 02:55:00,
2013-02-06 03:00:00,41.1,39.0,29.41,SW,231,1.1,1.1,92,0.04,CLR,,0.04,WeatherDisplay:10.37,2013-02-06 03:00:00,
2013-02-06 03:05:00,41.0,38.9,29.41,NNW,333,3.5,3.5,92,0.03,CLR,,0.04,WeatherDisplay:10.37,2013-02-06 03:05:00,
2013-02-06 03:10:00,41.0,38.9,29.42,NW,325,2.3,2.3,92,0.02,CLR,,0.04,WeatherDisplay:10.37,2013-02-06 03:10:00,
2013-02-06 03:15:00,40.9,38.8,29.42,NNW,329,1.1,1.1,92,0.02,CLR,,0.04,WeatherDisplay:10.37,2013-02-06 03:15:00,
2013-02-06 03:20:00,41.0,38.9,29.42,NNW,331,3.5,3.5,92,0.02,CLR,,0.04,WeatherDisplay:10.37,2013-02-06 03:20:00,
2013-02-06 03:25:00,40.9,38.8,29.42,NNW,338,1.1,1.1,92,0.02,CLR,,0.04,WeatherDisplay:10.37,2013-02-06 03:25:00,
2013-02-06 03:30:00,41.0,38.9,29.43,WNW,302,1.1,1.1,92,0.02,CLR,,0.04,WeatherDisplay:10.37,2013-02-06 03:30:00,
2013-02-06 03:35:00,41.0,38.6,29.43,NW,309,3.5,3.5,91,0.02,CLR,,0.04,WeatherDisplay:10.37,2013-02-06 03:35:00,
2013-02-06 03:40:00,41.0,38.6,29.43,WNW,302,3.5,3.5,91,0.02,CLR,,0.04,WeatherDisplay:10.37,2013-02-06 03:40:00,
2013-02-06 03:45:00,40.9,38.5,29.43,WNW,301,2.3,2.3,91,0.00,CLR,,0.04,WeatherDisplay:10.37,2013-02-06 03:45:00,
2013-02-06 03:50:00,40.9,38.5,29.44,NNW,340,2.3,2.3,91,0.00,CLR,,0.04,WeatherDisplay:10.37,2013-02-06 03:50:00,
2013-02-06 03:55:00,40.9,38.5,29.44,NNW,340,3.5,3.5,91,0.00,CLR,,0.04,WeatherDisplay:10.37,2013-02-06 03:55:00,
2013-02-06 04:00:00,40.9,38.5,29.44,West,263,4.6,4.6,91,0.00,CLR,,0.04,WeatherDisplay:10.37,2013-02-06 04:00:00,
2013-02-06 04:05:00,41.0,38.6,29.45,NNW,333,2.3,2.3,91,0.00,CLR,,0.04,WeatherDisplay:10.37,2013-02-06 04:05:00,
2013-02-06 04:10:00,41.0,38.6,29.45,West,274,1.1,1.1,91,0.00,CLR,,0.04,WeatherDisplay:10.37,2013-02-06 04:10:00,
2013-02-06 04:15:00,41.0,38.6,29.46,NNW,345,5.8,5.8,91,0.00,CLR,,0.04,WeatherDisplay:10.37,2013-02-06 04:15:00,
2013-02-06 04:20:00,41.1,38.4,29.46,WNW,283,2.3,2.3,90,0.00,CLR,,0.04,WeatherDisplay:10.37,2013-02-06 04:20:00,
2013-02-06 04:25:00,41.1,38.4,29.46,WSW,249,4.0,4.0,90,0.00,CLR,,0.04,WeatherDisplay:10.37,2013-02-06 04:25:00,
2013-02-06 04:30:00,41.2,38.5,29.46,East,82,3.5,3.5,90,0.00,CLR,,0.04,WeatherDisplay:10.37,2013-02-06 04:30:00,
2013-02-06 04:35:00,41.0,38.3,29.47,East,84,5.8,5.8,90,0.00,CLR,,0.04,WeatherDisplay:10.37,2013-02-06 04:35:00,
2013-02-06 04:40:00,41.0,38.3,29.47,NE,47,3.5,3.5,90,0.00,CLR,,0.04,WeatherDisplay:10.37,2013-02-06 04:40:00,
2013-02-06 04:45:00,41.0,38.0,29.47,NW,326,3.5,3.5,89,0.00,CLR,,0.04,WeatherDisplay:10.37,2013-02-06 04:45:00,
2013-02-06 04:50:00,40.9,37.9,29.48,NW,324,2.3,2.3,89,0.00,CLR,,0.04,WeatherDisplay:10.37,2013-02-06 04:50:00,
2013-02-06 04:55:00,40.9,37.9,29.48,North,350,4.6,4.6,89,0.00,CLR,,0.04,WeatherDisplay:10.37,2013-02-06 04:55:00,
2013-02-06 05:00:00,41.0,38.0,29.48,NNW,348,3.5,3.5,89,0.00,CLR,,0.04,WeatherDisplay:10.37,2013-02-06 05:00:00,
2013-02-06 05:05:00,41.0,38.0,29.49,SW,217,3.5,3.5,89,0.00,CLR,,0.04,WeatherDisplay:10.37,2013-02-06 05:05:00,
2013-02-06 05:10:00,40.9,37.9,29.49,ENE,70,3.0,3.0,89,0.00,CLR,,0.04,WeatherDisplay:10.37,2013-02-06 05:10:00,
2013-02-06 05:15:00,40.9,37.9,29.50,NW,322,4.6,4.6,89,0.00,CLR,,0.04,WeatherDisplay:10.37,2013-02-06 05:15:00,
2013-02-06 05:20:00,40.9,37.9,29.50,NW,309,3.5,3.5,89,0.00,CLR,,0.04,WeatherDisplay:10.37,2013-02-06 05:20:00,
2013-02-06 05:25:00,40.9,37.6,29.50,NNW,338,2.3,2.3,88,0.00,CLR,,0.04,WeatherDisplay:10.37,2013-02-06 05:25:00,
2013-02-06 05:30:00,40.9,37.6,29.51,NW,306,3.5,3.5,88,0.00,CLR,,0.04,WeatherDisplay:10.37,2013-02-06 05:30:00,
2013-02-06 05:35:00,41.0,37.7,29.51,NNW,333,3.5,3.5,88,0.00,CLR,,0.04,WeatherDisplay:10.37,2013-02-06 05:35:00,
2013-02-06 05:40:00,40.9,37.3,29.51,NE,43,5.8,5.8,87,0.00,CLR,,0.04,WeatherDisplay:10.37,2013-02-06 05:40:00,
2013-02-06 05:45:00,40.9,37.3,29.52,West,278,3.5,3.5,87,0.00,CLR,,0.04,WeatherDisplay:10.37,2013-02-06 05:45:00,
2013-02-06 05:50:00,40.8,36.9,29.52,ENE,63,6.9,6.9,86,0.00,CLR,,0.04,WeatherDisplay:10.37,2013-02-06 05:50:00,
2013-02-06 05:55:00,40.8,36.9,29.53,ESE,107,8.1,8.1,86,0.00,CLR,,0.04,WeatherDisplay:10.37,2013-02-06 05:55:00,
2013-02-06 06:00:00,40.8,36.9,29.53,NW,322,3.5,3.5,86,0.00,CLR,,0.04,WeatherDisplay:10.37,2013-02-06 06:00:00,
2013-02-06 06:05:00,40.7,36.5,29.53,NW,323,4.6,4.6,85,0.00,CLR,,0.04,WeatherDisplay:10.37,2013-02-06 06:05:00,
2013-02-06 06:10:00,40.6,36.7,29.54,ENE,66,2.3,2.3,86,0.00,CLR,,0.04,WeatherDisplay:10.37,2013-02-06 06:10:00,
2013-02-06 06:15:00,40.5,36.6,29.55,NW,326,3.5,3.5,86,0.00,CLR,,0.04,WeatherDisplay:10.37,2013-02-06 06:15:00,
2013-02-06 06:20:00,40.5,36.6,29.55,NE,53,3.0,3.0,86,0.00,CLR,,0.04,WeatherDisplay:10.37,2013-02-06 06:20:00,
2013-02-06 06:25:00,40.5,36.6,29.56,NE,46,2.3,2.3,86,0.00,CLR,,0.04,WeatherDisplay:10.37,2013-02-06 06:25:00,
2013-02-06 06:30:00,40.5,36.3,29.56,NW,314,3.5,3.5,85,0.00,CLR,,0.04,WeatherDisplay:10.37,2013-02-06 06:30:00,
2013-02-06 06:35:00,40.4,35.9,29.57,East,96,5.8,5.8,84,0.00,CLR,,0.04,WeatherDisplay:10.37,2013-02-06 06:35:00,
2013-02-06 06:40:00,40.3,35.2,29.58,North,9,9.2,9.2,82,0.00,CLR,,0.04,WeatherDisplay:10.37,2013-02-06 06:40:00,
2013-02-06 06:45:00,40.0,34.0,29.58,NW,319,5.8,5.8,79,0.00,CLR,,0.04,WeatherDisplay:10.37,2013-02-06 06:45:00,
2013-02-06 06:50:00,39.7,33.4,29.59,NE,36,8.1,8.1,78,0.00,CLR,,0.04,WeatherDisplay:10.37,2013-02-06 06:50:00,
2013-02-06 06:55:00,39.5,32.9,29.60,SW,234,9.2,9.2,77,0.00,CLR,,0.04,WeatherDisplay:10.37,2013-02-06 06:55:00,
2013-02-06 07:00:00,39.3,32.4,29.60,NE,46,9.2,9.2,76,0.00,CLR,,0.04,WeatherDisplay:10.37,2013-02-06 07:00:00,
2013-02-06 07:05:00,39.3,33.0,29.61,NNW,345,4.0,4.0,78,0.00,CLR,,0.04,WeatherDisplay:10.37,2013-02-06 07:05:00,
2013-02-06 07:10:00,39.2,32.9,29.62,NNW,330,9.2,9.2,78,0.00,CLR,,0.04,WeatherDisplay:10.37,2013-02-06 07:10:00,
2013-02-06 07:15:00,39.1,32.8,29.62,NE,51,6.9,6.9,78,0.00,CLR,,0.04,WeatherDisplay:10.37,2013-02-06 07:15:00,
2013-02-06 07:20:00,39.0,32.4,29.62,NW,311,6.9,6.9,77,0.00,CLR,,0.04,WeatherDisplay:10.37,2013-02-06 07:20:00,
2013-02-06 07:25:00,39.0,32.7,29.63,NW,318,4.6,4.6,78,0.00,CLR,,0.04,WeatherDisplay:10.37,2013-02-06 07:25:00,
2013-02-06 07:30:00,38.9,33.3,29.64,NNW,340,3.5,3.5,80,0.00,CLR,,0.04,WeatherDisplay:10.37,2013-02-06 07:30:00,
2013-02-06 07:35:00,38.8,33.5,29.64,SW,225,5.8,5.8,81,0.00,CLR,,0.04,WeatherDisplay:10.37,2013-02-06 07:35:00,
2013-02-06 07:40:00,38.6,33.6,29.65,NNW,333,3.5,3.5,82,0.00,CLR,,0.04,WeatherDisplay:10.37,2013-02-06 07:40:00,
2013-02-06 07:45:00,38.4,33.4,29.65,NW,326,3.5,3.5,82,0.00,CLR,,0.04,WeatherDisplay:10.37,2013-02-06 07:45:00,
2013-02-06 07:50:00,38.3,33.3,29.66,NNW,329,6.9,6.9,82,0.00,CLR,,0.04,WeatherDisplay:10.37,2013-02-06 07:50:00,
2013-02-06 07:55:00,38.3,33.6,29.66,NW,325,1.1,1.1,83,0.00,CLR,,0.04,WeatherDisplay:10.37,2013-02-06 07:55:00,
2013-02-06 08:00:00,38.3,33.9,29.67,ENE,58,4.0,4.0,84,0.00,CLR,,0.04,WeatherDisplay:10.37,2013-02-06 08:00:00,
2013-02-06 08:05:00,38.3,33.9,29.67,NNW,333,3.5,3.5,84,0.00,CLR,,0.04,WeatherDisplay:10.37,2013-02-06 08:05:00,
2013-02-06 08:10:00,38.3,33.9,29.67,NW,318,3.5,3.5,84,0.00,CLR,,0.04,WeatherDisplay:10.37,2013-02-06 08:10:00,
2013-02-06 08:15:00,38.1,34.0,29.67,NW,305,3.0,3.0,85,0.00,CLR,,0.04,WeatherDisplay:10.37,2013-02-06 08:15:00,
2013-02-06 08:20:00,38.0,33.9,29.68,North,5,2.0,2.0,85,0.00,CLR,,0.04,WeatherDisplay:10.37,2013-02-06 08:20:00,
2013-02-06 08:25:00,37.9,34.1,29.68,NW,323,3.5,3.5,86,0.00,CLR,,0.04,WeatherDisplay:10.37,2013-02-06 08:25:00,
2013-02-06 08:30:00,37.8,34.0,29.68,NNW,347,3.5,3.5,86,0.00,CLR,,0.04,WeatherDisplay:10.37,2013-02-06 08:30:00,
2013-02-06 08:35:00,37.7,33.9,29.69,North,8,3.5,3.5,86,0.00,CLR,,0.04,WeatherDisplay:10.37,2013-02-06 08:35:00,
2013-02-06 08:40:00,37.6,33.8,29.70,NW,323,3.5,3.5,86,0.00,CLR,,0.04,WeatherDisplay:10.37,2013-02-06 08:40:00,
2013-02-06 08:45:00,37.5,34.0,29.70,NW,304,2.3,2.3,87,0.00,CLR,,0.04,WeatherDisplay:10.37,2013-02-06 08:45:00,
2013-02-06 08:50:00,37.4,33.9,29.70,NNW,328,2.3,2.3,87,0.00,CLR,,0.04,WeatherDisplay:10.37,2013-02-06 08:50:00,
2013-02-06 08:55:00,37.6,34.1,29.70,NW,314,3.5,3.5,87,0.00,CLR,,0.04,WeatherDisplay:10.37,2013-02-06 08:55:00,
2013-02-06 09:00:00,37.8,34.3,29.71,NW,318,2.3,2.3,87,0.00,CLR,,0.04,WeatherDisplay:10.37,2013-02-06 09:00:00,
2013-02-06 09:05:00,38.2,34.4,29.71,North,354,3.5,3.5,86,0.00,CLR,,0.04,WeatherDisplay:10.37,2013-02-06 09:05:00,
2013-02-06 09:10:00,38.5,34.4,29.71,SW,221,2.3,2.3,85,0.00,CLR,,0.04,WeatherDisplay:10.37,2013-02-06 09:10:00,
2013-02-06 09:15:00,38.9,34.8,29.71,WNW,300,0.0,0.1,85,0.00,CLR,,0.04,WeatherDisplay:10.37,2013-02-06 09:15:00,
2013-02-06 09:20:00,39.5,35.1,29.72,WNW,287,1.1,1.1,84,0.00,CLR,,0.04,WeatherDisplay:10.37,2013-02-06 09:20:00,
2013-02-06 09:25:00,39.9,35.2,29.72,WNW,295,3.0,3.0,83,0.00,CLR,,0.04,WeatherDisplay:10.37,2013-02-06 09:25:00,
2013-02-06 09:30:00,40.4,35.3,29.72,ENE,60,3.0,3.0,82,0.00,CLR,,0.04,WeatherDisplay:10.37,2013-02-06 09:30:00,
2013-02-06 09:35:00,40.6,34.9,29.72,North,358,3.5,3.5,80,0.00,CLR,,0.04,WeatherDisplay:10.37,2013-02-06 09:35:00,
2013-02-06 09:40:00,40.7,35.0,29.72,SW,235,1.1,1.1,80,0.00,CLR,,0.04,WeatherDisplay:10.37,2013-02-06 09:40:00,
2013-02-06 09:45:00,40.7,34.4,29.73,NE,54,5.8,5.8,78,0.00,CLR,,0.04,WeatherDisplay:10.37,2013-02-06 09:45:00,
2013-02-06 09:50:00,40.4,34.1,29.73,NW,322,3.5,3.5,78,0.00,CLR,,0.04,WeatherDisplay:10.37,2013-02-06 09:50:00,
2013-02-06 09:55:00,40.3,34.0,29.73,West,278,3.5,4.4,78,0.00,CLR,,0.04,WeatherDisplay:10.37,2013-02-06 09:55:00,
2013-02-06 10:00:00,40.3,34.3,29.74,ESE,102,2.0,2.0,79,0.00,CLR,,0.04,WeatherDisplay:10.37,2013-02-06 10:00:00,
2013-02-06 10:05:00,40.5,34.5,29.74,NW,311,3.5,3.5,79,0.00,CLR,,0.04,WeatherDisplay:10.37,2013-02-06 10:05:00,
2013-02-06 10:10:00,40.6,34.6,29.74,WSW,238,3.5,3.5,79,0.00,CLR,,0.04,WeatherDisplay:10.37,2013-02-06 10:10:00,
2013-02-06 10:15:00,40.6,34.6,29.74,ENE,76,5.8,5.8,79,0.00,CLR,,0.04,WeatherDisplay:10.37,2013-02-06 10:15:00,
2013-02-06 10:20:00,40.6,34.9,29.75,WSW,239,3.5,3.5,80,0.00,CLR,,0.04,WeatherDisplay:10.37,2013-02-06 10:20:00,
2013-02-06 10:25:00,40.3,35.2,29.75,West,281,4.6,4.6,82,0.00,CLR,,0.04,WeatherDisplay:10.37,2013-02-06 10:25:00,
2013-02-06 10:30:00,40.1,35.4,29.75,NNW,347,3.5,3.7,83,0.00,CLR,,0.04,WeatherDisplay:10.37,2013-02-06 10:30:00,
2013-02-06 10:35:00,40.0,35.3,29.76,West,260,5.8,5.8,83,0.00,CLR,,0.04,WeatherDisplay:10.37,2013-02-06 10:35:00,
2013-02-06 10:40:00,40.1,35.4,29.76,NNW,335,5.8,5.8,83,0.00,CLR,,0.04,WeatherDisplay:10.37,2013-02-06 10:40:00,
2013-02-06 10:45:00,40.2,35.4,29.76,NNW,343,5.8,5.8,83,0.00,CLR,,0.04,WeatherDisplay:10.37,2013-02-06 10:45:00,
2013-02-06 10:50:00,40.3,35.8,29.76,NNW,348,2.3,2.3,84,0.00,CLR,,0.04,WeatherDisplay:10.37,2013-02-06 10:50:00,
2013-02-06 10:55:00,40.4,35.6,29.76,NW,310,3.5,3.8,83,0.00,CLR,,0.04,WeatherDisplay:10.37,2013-02-06 10:55:00,
2013-02-06 11:00:00,40.6,35.8,29.77,NNW,342,2.3,2.3,83,0.00,CLR,,0.04,WeatherDisplay:10.37,2013-02-06 11:00:00,
2013-02-06 11:05:00,40.7,35.6,29.77,ENE,59,5.0,5.1,82,0.00,CLR,,0.04,WeatherDisplay:10.37,2013-02-06 11:05:00,
2013-02-06 11:10:00,40.9,35.8,29.77,NW,312,4.6,4.6,82,0.00,CLR,,0.04,WeatherDisplay:10.37,2013-02-06 11:10:00,
2013-02-06 11:15:00,41.1,36.0,29.77,WSW,245,2.3,2.3,82,0.00,CLR,,0.04,WeatherDisplay:10.37,2013-02-06 11:15:00,
2013-02-06 11:20:00,41.1,36.0,29.77,NNW,329,3.5,3.5,82,0.00,CLR,,0.04,WeatherDisplay:10.37,2013-02-06 11:20:00,
2013-02-06 11:25:00,41.2,35.8,29.77,NNW,328,4.6,4.6,81,0.00,CLR,,0.04,WeatherDisplay:10.37,2013-02-06 11:25:00,
2013-02-06 11:30:00,41.4,36.0,29.77,North,360,5.0,5.0,81,0.00,CLR,,0.04,WeatherDisplay:10.37,2013-02-06 11:30:00,
2013-02-06 11:35:00,41.6,35.9,29.77,WSW,248,5.8,5.8,80,0.00,CLR,,0.04,WeatherDisplay:10.37,2013-02-06 11:35:00,
2013-02-06 11:40:00,41.9,35.9,29.78,NNW,340,5.8,5.8,79,0.00,CLR,,0.04,WeatherDisplay:10.37,2013-02-06 11:40:00,
2013-02-06 11:45:00,42.0,35.6,29.78,North,1,4.6,4.6,78,0.00,CLR,,0.04,WeatherDisplay:10.37,2013-02-06 11:45:00,
2013-02-06 11:50:00,42.1,35.1,29.78,NE,39,8.1,8.1,76,0.00,CLR,,0.04,WeatherDisplay:10.37,2013-02-06 11:50:00,
2013-02-06 11:55:00,42.1,34.7,29.78,West,275,5.8,5.8,75,0.00,CLR,,0.04,WeatherDisplay:10.37,2013-02-06 11:55:00,
2013-02-06 12:00:00,42.2,34.5,29.78,East,93,9.2,9.2,74,0.00,CLR,,0.04,WeatherDisplay:10.37,2013-02-06 12:00:00,
2013-02-06 12:05:00,42.5,34.8,29.78,ENE,65,6.9,6.9,74,0.00,CLR,,0.04,WeatherDisplay:10.37,2013-02-06 12:05:00,
2013-02-06 12:10:00,42.8,34.7,29.78,ESE,108,5.8,5.8,73,0.00,CLR,,0.04,WeatherDisplay:10.37,2013-02-06 12:10:00,
2013-02-06 12:15:00,42.9,34.5,29.78,ESE,103,11.5,11.5,72,0.00,CLR,,0.04,WeatherDisplay:10.37,2013-02-06 12:15:00,
2013-02-06 12:20:00,43.2,35.5,29.79,West,276,4.6,4.6,74,0.00,CLR,,0.04,WeatherDisplay:10.37,2013-02-06 12:20:00,
2013-02-06 12:25:00,43.7,35.6,29.79,NNW,328,4.6,4.6,73,0.00,CLR,,0.04,WeatherDisplay:10.37,2013-02-06 12:25:00,
2013-02-06 12:30:00,43.7,35.3,29.80,NW,323,8.0,8.0,72,0.00,CLR,,0.04,WeatherDisplay:10.37,2013-02-06 12:30:00,
2013-02-06 12:35:00,43.4,33.9,29.80,NNW,342,9.2,9.2,69,0.00,CLR,,0.04,WeatherDisplay:10.37,2013-02-06 12:35:00,
2013-02-06 12:40:00,43.1,34.0,29.80,NE,36,9.2,9.2,70,0.00,CLR,,0.04,WeatherDisplay:10.37,2013-02-06 12:40:00,
2013-02-06 12:45:00,42.9,34.1,29.80,ENE,70,8.1,8.1,71,0.00,CLR,,0.04,WeatherDisplay:10.37,2013-02-06 12:45:00,
2013-02-06 12:50:00,42.7,34.3,29.80,WNW,294,4.6,4.6,72,0.00,CLR,,0.04,WeatherDisplay:10.37,2013-02-06 12:50:00,
2013-02-06 12:55:00,42.5,34.1,29.80,East,96,3.5,3.5,72,0.00,CLR,,0.04,WeatherDisplay:10.37,2013-02-06 12:55:00,
2013-02-06 13:00:00,42.4,34.0,29.80,ESE,114,3.0,3.0,72,0.00,CLR,,0.04,WeatherDisplay:10.37,2013-02-06 13:00:00,
2013-02-06 13:05:00,42.5,34.5,29.80,WNW,295,4.0,4.1,73,0.00,CLR,,0.04,WeatherDisplay:10.37,2013-02-06 13:05:00,
2013-02-06 13:10:00,42.6,33.9,29.81,NNW,328,8.1,8.1,71,0.00,CLR,,0.04,WeatherDisplay:10.37,2013-02-06 13:10:00,
2013-02-06 13:15:00,42.6,34.2,29.81,ENE,68,8.0,8.0,72,0.00,CLR,,0.04,WeatherDisplay:10.37,2013-02-06 13:15:00,
2013-02-06 13:20:00,42.6,34.5,29.81,ENE,68,3.5,3.5,73,0.00,CLR,,0.04,WeatherDisplay:10.37,2013-02-06 13:20:00,
2013-02-06 13:25:00,42.7,34.3,29.81,ENE,62,4.6,4.6,72,0.00,CLR,,0.04,WeatherDisplay:10.37,2013-02-06 13:25:00,
2013-02-06 13:30:00,42.5,33.8,29.82,WNW,295,12.7,12.7,71,0.00,CLR,,0.04,WeatherDisplay:10.37,2013-02-06 13:30:00,
2013-02-06 13:35:00,42.4,34.0,29.82,ENE,68,4.0,4.0,72,0.00,CLR,,0.04,WeatherDisplay:10.37,2013-02-06 13:35:00,
2013-02-06 13:40:00,42.2,33.8,29.82,NNE,33,10.4,10.4,72,0.00,CLR,,0.04,WeatherDisplay:10.37,2013-02-06 13:40:00,
2013-02-06 13:45:00,42.1,34.1,29.82,West,266,2.3,2.3,73,0.00,CLR,,0.04,WeatherDisplay:10.37,2013-02-06 13:45:00,
2013-02-06 13:50:00,41.8,34.5,29.83,NW,321,10.4,10.4,75,0.00,CLR,,0.04,WeatherDisplay:10.37,2013-02-06 13:50:00,
2013-02-06 13:55:00,40.9,34.9,29.83,East,91,9.2,9.2,79,0.00,CLR,,0.04,WeatherDisplay:10.37,2013-02-06 13:55:00,
2013-02-06 14:00:00,40.6,35.2,29.83,West,273,5.8,5.8,81,0.00,CLR,,0.04,WeatherDisplay:10.37,2013-02-06 14:00:00,
2013-02-06 14:05:00,40.4,35.0,29.83,West,271,4.6,4.6,81,0.00,CLR,,0.04,WeatherDisplay:10.37,2013-02-06 14:05:00,
2013-02-06 14:10:00,40.4,34.7,29.83,NNW,348,4.6,4.6,80,0.00,CLR,,0.04,WeatherDisplay:10.37,2013-02-06 14:10:00,
2013-02-06 14:15:00,40.6,35.2,29.83,NNW,328,3.5,3.5,81,0.00,CLR,,0.04,WeatherDisplay:10.37,2013-02-06 14:15:00,
2013-02-06 14:20:00,40.8,35.1,29.83,WNW,300,3.5,3.5,80,0.00,CLR,,0.04,WeatherDisplay:10.37,2013-02-06 14:20:00,
2013-02-06 14:25:00,40.9,34.9,29.83,NNW,331,5.8,5.8,79,0.00,CLR,,0.04,WeatherDisplay:10.37,2013-02-06 14:25:00,
2013-02-06 14:30:00,40.7,35.0,29.84,NNW,345,4.0,4.0,80,0.00,CLR,,0.04,WeatherDisplay:10.37,2013-02-06 14:30:00,
2013-02-06 14:35:00,40.6,34.6,29.84,ENE,77,3.5,3.5,79,0.00,CLR,,0.04,WeatherDisplay:10.37,2013-02-06 14:35:00,
2013-02-06 14:40:00,40.7,34.4,29.84,WNW,302,6.9,6.9,78,0.00,CLR,,0.04,WeatherDisplay:10.37,2013-02-06 14:40:00,
2013-02-06 14:45:00,41.0,34.0,29.84,North,5,4.0,4.1,76,0.00,CLR,,0.04,WeatherDisplay:10.37,2013-02-06 14:45:00,
2013-02-06 14:50:00,41.2,34.2,29.85,WSW,252,4.6,4.6,76,0.00,CLR,,0.04,WeatherDisplay:10.37,2013-02-06 14:50:00,
2013-02-06 14:55:00,41.3,34.0,29.84,NNW,331,10.4,10.4,75,0.00,CLR,,0.04,WeatherDisplay:10.37,2013-02-06 14:55:00,
2013-02-06 15:00:00,41.3,34.0,29.85,NNW,329,4.6,4.6,75,0.00,CLR,,0.04,WeatherDisplay:10.37,2013-02-06 15:00:00,
2013-02-06 15:05:00,41.2,33.5,29.85,North,1,7.0,7.0,74,0.00,CLR,,0.04,WeatherDisplay:10.37,2013-02-06 15:05:00,
2013-02-06 15:10:00,41.3,33.6,29.85,NW,307,10.4,10.4,74,0.00,CLR,,0.04,WeatherDisplay:10.37,2013-02-06 15:10:00,
2013-02-06 15:15:00,41.5,33.5,29.85,WNW,287,8.1,8.1,73,0.00,CLR,,0.04,WeatherDisplay:10.37,2013-02-06 15:15:00,
2013-02-06 15:20:00,41.7,33.3,29.85,NE,35,24.2,24.2,72,0.00,CLR,,0.04,WeatherDisplay:10.37,2013-02-06 15:20:00,
2013-02-06 15:25:00,41.6,33.2,29.86,NNW,345,8.1,8.1,72,0.00,CLR,,0.04,WeatherDisplay:10.37,2013-02-06 15:25:00,
2013-02-06 15:30:00,41.5,33.1,29.86,NNW,341,6.9,6.9,72,0.00,CLR,,0.04,WeatherDisplay:10.37,2013-02-06 15:30:00,
2013-02-06 15:35:00,41.4,33.4,29.86,NW,319,4.6,4.6,73,0.00,CLR,,0.04,WeatherDisplay:10.37,2013-02-06 15:35:00,
2013-02-06 15:40:00,41.2,33.2,29.87,NE,55,5.8,5.8,73,0.00,CLR,,0.04,WeatherDisplay:10.37,2013-02-06 15:40:00,
2013-02-06 15:45:00,41.2,33.2,29.86,SE,127,3.5,3.5,73,0.00,CLR,,0.04,WeatherDisplay:10.37,2013-02-06 15:45:00,
2013-02-06 15:50:00,41.1,33.1,29.87,NW,307,3.5,3.5,73,0.00,CLR,,0.04,WeatherDisplay:10.37,2013-02-06 15:50:00,
2013-02-06 15:55:00,41.1,32.8,29.87,WNW,288,3.5,3.5,72,0.00,CLR,,0.04,WeatherDisplay:10.37,2013-02-06 15:55:00,
2013-02-06 16:00:00,41.3,32.6,29.87,North,350,8.1,8.1,71,0.00,CLR,,0.04,WeatherDisplay:10.37,2013-02-06 16:00:00,
2013-02-06 16:05:00,41.6,32.5,29.87,ESE,122,5.8,5.8,70,0.00,CLR,,0.04,WeatherDisplay:10.37,2013-02-06 16:05:00,
2013-02-06 16:10:00,41.8,32.0,29.87,WNW,297,5.8,5.8,68,0.00,CLR,,0.04,WeatherDisplay:10.37,2013-02-06 16:10:00,
2013-02-06 16:15:00,41.9,32.5,29.87,NNW,330,8.1,8.1,69,0.00,CLR,,0.04,WeatherDisplay:10.37,2013-02-06 16:15:00,
2013-02-06 16:20:00,41.8,32.4,29.88,North,356,8.0,8.0,69,0.00,CLR,,0.04,WeatherDisplay:10.37,2013-02-06 16:20:00,
2013-02-06 16:25:00,41.8,32.4,29.88,ESE,103,12.7,12.7,69,0.00,CLR,,0.04,WeatherDisplay:10.37,2013-02-06 16:25:00,
2013-02-06 16:30:00,41.8,32.0,29.89,ENE,60,5.8,5.8,68,0.00,CLR,,0.04,WeatherDisplay:10.37,2013-02-06 16:30:00,
2013-02-06 16:35:00,41.8,32.0,29.89,NNW,339,8.1,8.1,68,0.00,CLR,,0.04,WeatherDisplay:10.37,2013-02-06 16:35:00,
2013-02-06 16:40:00,41.8,31.6,29.89,NNW,332,4.6,4.6,67,0.00,CLR,,0.04,WeatherDisplay:10.37,2013-02-06 16:40:00,
2013-02-06 16:45:00,41.7,31.5,29.89,NW,320,6.9,6.9,67,0.00,CLR,,0.04,WeatherDisplay:10.37,2013-02-06 16:45:00,
2013-02-06 16:50:00,41.6,31.4,29.90,North,356,5.8,5.8,67,0.00,CLR,,0.04,WeatherDisplay:10.37,2013-02-06 16:50:00,
2013-02-06 16:55:00,41.3,31.5,29.90,NNW,340,3.5,3.5,68,0.00,CLR,,0.04,WeatherDisplay:10.37,2013-02-06 16:55:00,
2013-02-06 17:00:00,41.1,31.3,29.90,East,96,9.2,9.2,68,0.00,CLR,,0.04,WeatherDisplay:10.37,2013-02-06 17:00:00,
2013-02-06 17:05:00,40.9,31.5,29.91,NW,316,5.8,5.8,69,0.00,CLR,,0.04,WeatherDisplay:10.37,2013-02-06 17:05:00,
2013-02-06 17:10:00,40.8,31.4,29.91,WNW,284,4.6,4.6,69,0.00,CLR,,0.04,WeatherDisplay:10.37,2013-02-06 17:10:00,
2013-02-06 17:15:00,40.8,31.8,29.92,NNW,336,4.6,5.1,70,0.00,CLR,,0.04,WeatherDisplay:10.37,2013-02-06 17:15:00,
2013-02-06 17:20:00,40.8,31.4,29.92,NNW,328,5.0,5.0,69,0.00,CLR,,0.04,WeatherDisplay:10.37,2013-02-06 17:20:00,
2013-02-06 17:25:00,40.7,31.3,29.92,SE,135,6.9,6.9,69,0.00,CLR,,0.04,WeatherDisplay:10.37,2013-02-06 17:25:00,
2013-02-06 17:30:00,40.5,31.5,29.92,NNW,330,3.5,3.5,70,0.00,CLR,,0.04,WeatherDisplay:10.37,2013-02-06 17:30:00,
2013-02-06 17:35:00,40.3,31.6,29.93,NNW,330,3.5,3.5,71,0.00,CLR,,0.04,WeatherDisplay:10.37,2013-02-06 17:35:00,
2013-02-06 17:40:00,40.2,31.5,29.93,NE,49,5.8,5.8,71,0.00,CLR,,0.04,WeatherDisplay:10.37,2013-02-06 17:40:00,
2013-02-06 17:45:00,40.2,31.9,29.93,West,264,4.0,4.0,72,0.00,CLR,,0.04,WeatherDisplay:10.37,2013-02-06 17:45:00,
2013-02-06 17:50:00,40.3,31.6,29.93,SW,232,8.0,8.0,71,0.00,CLR,,0.04,WeatherDisplay:10.37,2013-02-06 17:50:00,
2013-02-06 17:55:00,40.4,31.4,29.94,NW,305,9.2,9.2,70,0.00,CLR,,0.04,WeatherDisplay:10.37,2013-02-06 17:55:00,
2013-02-06 18:00:00,40.6,31.2,29.94,North,349,4.6,4.6,69,0.00,CLR,,0.04,WeatherDisplay:10.37,2013-02-06 18:00:00,
2013-02-06 18:05:00,40.6,31.2,29.94,NW,310,4.6,4.6,69,0.00,CLR,,0.04,WeatherDisplay:10.37,2013-02-06 18:05:00,
2013-02-06 18:10:00,40.5,31.5,29.95,ENE,64,8.0,8.0,70,0.00,CLR,,0.04,WeatherDisplay:10.37,2013-02-06 18:10:00,
2013-02-06 18:15:00,40.5,31.5,29.95,NW,310,5.0,5.0,70,0.00,CLR,,0.04,WeatherDisplay:10.37,2013-02-06 18:15:00,
2013-02-06 18:20:00,40.5,31.5,29.96,NNW,337,5.8,5.8,70,0.00,CLR,,0.04,WeatherDisplay:10.37,2013-02-06 18:20:00,
2013-02-06 18:25:00,40.6,31.2,29.96,NE,35,8.1,8.1,69,0.00,CLR,,0.04,WeatherDisplay:10.37,2013-02-06 18:25:00,
2013-02-06 18:30:00,40.6,31.6,29.96,North,350,3.5,3.5,70,0.00,CLR,,0.04,WeatherDisplay:10.37,2013-02-06 18:30:00,
2013-02-06 18:35:00,40.6,31.6,29.96,ENE,65,4.6,4.6,70,0.00,CLR,,0.04,WeatherDisplay:10.37,2013-02-06 18:35:00,
2013-02-06 18:40:00,40.6,31.6,29.96,NW,316,3.5,3.5,70,0.00,CLR,,0.04,WeatherDisplay:10.37,2013-02-06 18:40:00,
2013-02-06 18:45:00,40.5,31.5,29.97,NNW,338,9.2,9.2,70,0.00,CLR,,0.04,WeatherDisplay:10.37,2013-02-06 18:45:00,
2013-02-06 18:50:00,40.3,31.3,29.97,ESE,122,2.3,2.4,70,0.00,CLR,,0.04,WeatherDisplay:10.37,2013-02-06 18:50:00,
2013-02-06 18:55:00,40.2,31.2,29.97,NE,46,8.1,8.1,70,0.00,CLR,,0.04,WeatherDisplay:10.37,2013-02-06 18:55:00,
2013-02-06 19:00:00,40.2,31.5,29.97,NNW,337,5.8,5.8,71,0.00,CLR,,0.04,WeatherDisplay:10.37,2013-02-06 19:00:00,
2013-02-06 19:05:00,40.1,31.4,29.98,NNW,329,4.0,4.0,71,0.00,CLR,,0.04,WeatherDisplay:10.37,2013-02-06 19:05:00,
2013-02-06 19:10:00,40.0,31.4,29.98,WSW,255,3.5,3.5,71,0.00,CLR,,0.04,WeatherDisplay:10.37,2013-02-06 19:10:00,
2013-02-06 19:15:00,39.9,31.3,29.98,ESE,102,6.9,6.9,71,0.00,CLR,,0.04,WeatherDisplay:10.37,2013-02-06 19:15:00,
2013-02-06 19:20:00,39.7,31.1,29.98,SW,232,10.4,10.4,71,0.00,CLR,,0.04,WeatherDisplay:10.37,2013-02-06 19:20:00,
2013-02-06 19:25:00,39.5,30.9,29.98,ENE,65,8.1,8.1,71,0.00,CLR,,0.04,WeatherDisplay:10.37,2013-02-06 19:25:00,
2013-02-06 19:30:00,39.4,31.1,29.99,NNW,347,7.0,7.0,72,0.00,CLR,,0.04,WeatherDisplay:10.37,2013-02-06 19:30:00,
2013-02-06 19:35:00,39.3,31.0,29.99,NW,325,4.6,4.6,72,0.00,CLR,,0.04,WeatherDisplay:10.37,2013-02-06 19:35:00,
2013-02-06 19:40:00,39.3,31.0,29.99,ENE,74,3.5,3.5,72,0.00,CLR,,0.04,WeatherDisplay:10.37,2013-02-06 19:40:00,
2013-02-06 19:45:00,39.1,30.8,29.99,NNW,345,3.5,3.5,72,0.00,CLR,,0.04,WeatherDisplay:10.37,2013-02-06 19:45:00,
2013-02-06 19:50:00,39.1,30.8,29.99,East,80,4.6,4.6,72,0.00,CLR,,0.04,WeatherDisplay:10.37,2013-02-06 19:50:00,
2013-02-06 19:55:00,39.1,30.8,29.99,North,349,3.5,3.5,72,0.00,CLR,,0.04,WeatherDisplay:10.37,2013-02-06 19:55:00,
2013-02-06 20:00:00,39.0,30.4,29.99,NNW,337,6.9,6.9,71,0.00,CLR,,0.04,WeatherDisplay:10.37,2013-02-06 20:00:00,
2013-02-06 20:05:00,39.0,30.4,30.00,WSW,252,3.5,3.5,71,0.00,CLR,,0.04,WeatherDisplay:10.37,2013-02-06 20:05:00,
2013-02-06 20:10:00,38.8,30.5,30.00,WSW,238,1.1,1.1,72,0.00,CLR,,0.04,WeatherDisplay:10.37,2013-02-06 20:10:00,
2013-02-06 20:15:00,38.6,30.7,30.00,NNW,345,3.5,3.5,73,0.00,CLR,,0.04,WeatherDisplay:10.37,2013-02-06 20:15:00,
2013-02-06 20:20:00,38.5,30.6,30.00,WSW,242,2.3,2.3,73,0.00,CLR,,0.04,WeatherDisplay:10.37,2013-02-06 20:20:00,
2013-02-06 20:25:00,38.2,30.6,30.00,NNW,338,3.0,3.0,74,0.00,CLR,,0.04,WeatherDisplay:10.37,2013-02-06 20:25:00,
2013-02-06 20:30:00,38.2,31.0,30.00,NW,326,1.0,1.0,75,0.00,CLR,,0.04,WeatherDisplay:10.37,2013-02-06 20:30:00,
2013-02-06 20:35:00,38.0,30.8,30.00,WNW,293,9.2,9.2,75,0.00,CLR,,0.04,WeatherDisplay:10.37,2013-02-06 20:35:00,
2013-02-06 20:40:00,37.8,30.6,30.00,NW,314,2.0,2.0,75,0.00,CLR,,0.04,WeatherDisplay:10.37,2013-02-06 20:40:00,
2013-02-06 20:45:00,37.7,30.5,30.00,NNE,23,3.5,3.5,75,0.00,CLR,,0.04,WeatherDisplay:10.37,2013-02-06 20:45:00,
2013-02-06 20:50:00,37.7,30.5,30.01,NW,320,1.1,1.1,75,0.00,CLR,,0.04,WeatherDisplay:10.37,2013-02-06 20:50:00,
2013-02-06 20:55:00,37.7,30.2,30.01,WSW,240,4.6,4.6,74,0.00,CLR,,0.04,WeatherDisplay:10.37,2013-02-06 20:55:00,
2013-02-06 21:00:00,37.7,30.2,30.01,NNW,331,2.3,2.3,74,0.00,CLR,,0.04,WeatherDisplay:10.37,2013-02-06 21:00:00,
2013-02-06 21:05:00,37.6,30.1,30.01,ENE,65,2.3,2.3,74,0.00,CLR,,0.04,WeatherDisplay:10.37,2013-02-06 21:05:00,
2013-02-06 21:10:00,37.4,29.9,30.01,West,259,1.1,1.1,74,0.00,CLR,,0.04,WeatherDisplay:10.37,2013-02-06 21:10:00,
2013-02-06 21:15:00,37.2,29.7,30.01,WSW,238,2.3,2.3,74,0.00,CLR,,0.04,WeatherDisplay:10.37,2013-02-06 21:15:00,
2013-02-06 21:20:00,37.2,29.7,30.01,WSW,242,2.3,0.0,74,0.00,CLR,,0.04,WeatherDisplay:10.37,2013-02-06 21:20:00,
2013-02-06 21:25:00,37.2,30.0,30.01,West,278,1.0,1.0,75,0.00,CLR,,0.04,WeatherDisplay:10.37,2013-02-06 21:25:00,
2013-02-06 21:30:00,37.1,29.6,30.02,West,279,3.5,3.5,74,0.00,CLR,,0.04,WeatherDisplay:10.37,2013-02-06 21:30:00,
2013-02-06 21:35:00,36.9,29.4,30.02,NNW,342,6.9,6.9,74,0.00,CLR,,0.04,WeatherDisplay:10.37,2013-02-06 21:35:00,
2013-02-06 21:40:00,37.0,29.5,30.02,West,271,1.1,1.1,74,0.00,CLR,,0.04,WeatherDisplay:10.37,2013-02-06 21:40:00,
2013-02-06 21:45:00,37.0,29.5,30.02,North,354,5.0,5.0,74,0.00,CLR,,0.04,WeatherDisplay:10.37,2013-02-06 21:45:00,
2013-02-06 21:50:00,37.1,29.6,30.03,WSW,256,1.1,1.1,74,0.00,CLR,,0.04,WeatherDisplay:10.37,2013-02-06 21:50:00,
2013-02-06 21:55:00,37.2,29.3,30.03,North,356,5.8,5.8,73,0.00,CLR,,0.04,WeatherDisplay:10.37,2013-02-06 21:55:00,
2013-02-06 22:00:00,37.4,29.5,30.03,WSW,252,2.0,2.0,73,0.00,CLR,,0.04,WeatherDisplay:10.37,2013-02-06 22:00:00,
2013-02-06 22:05:00,37.4,29.5,30.03,West,262,3.5,3.5,73,0.00,CLR,,0.04,WeatherDisplay:10.37,2013-02-06 22:05:00,
2013-02-06 22:10:00,37.5,29.3,30.03,West,266,5.8,5.8,72,0.00,CLR,,0.04,WeatherDisplay:10.37,2013-02-06 22:10:00,
2013-02-06 22:15:00,37.5,29.3,30.03,West,274,1.1,1.1,72,0.00,CLR,,0.04,WeatherDisplay:10.37,2013-02-06 22:15:00,
2013-02-06 22:20:00,37.4,29.2,30.04,WSW,243,3.5,3.5,72,0.00,CLR,,0.04,WeatherDisplay:10.37,2013-02-06 22:20:00,
2013-02-06 22:25:00,37.4,29.2,30.04,SW,221,2.3,2.3,72,0.00,CLR,,0.04,WeatherDisplay:10.37,2013-02-06 22:25:00,
2013-02-06 22:30:00,37.3,29.1,30.04,WNW,298,3.5,3.5,72,0.00,CLR,,0.04,WeatherDisplay:10.37,2013-02-06 22:30:00,
2013-02-06 22:35:00,37.0,29.1,30.04,SW,232,3.0,3.0,73,0.00,CLR,,0.04,WeatherDisplay:10.37,2013-02-06 22:35:00,
2013-02-06 22:40:00,36.8,29.0,30.04,WNW,285,5.8,5.8,73,0.00,CLR,,0.04,WeatherDisplay:10.37,2013-02-06 22:40:00,
2013-02-06 22:45:00,36.6,28.8,30.04,NNW,335,3.5,3.5,73,0.00,CLR,,0.04,WeatherDisplay:10.37,2013-02-06 22:45:00,
2013-02-06 22:50:00,36.4,28.9,30.04,WSW,255,3.5,3.5,74,0.00,CLR,,0.04,WeatherDisplay:10.37,2013-02-06 22:50:00,
2013-02-06 22:55:00,36.3,28.8,30.04,NW,307,3.5,3.5,74,0.00,CLR,,0.04,WeatherDisplay:10.37,2013-02-06 22:55:00,
2013-02-06 23:00:00,36.1,28.6,30.05,West,269,4.6,4.6,74,0.00,CLR,,0.04,WeatherDisplay:10.37,2013-02-06 23:00:00,
2013-02-06 23:05:00,36.0,28.5,30.05,SW,233,2.3,2.4,74,0.00,CLR,,0.04,WeatherDisplay:10.37,2013-02-06 23:05:00,
2013-02-06 23:10:00,35.9,28.7,30.05,WNW,283,2.3,2.3,75,0.00,CLR,,0.04,WeatherDisplay:10.37,2013-02-06 23:10:00,
2013-02-06 23:15:00,35.9,28.4,30.05,WSW,257,4.6,4.6,74,0.00,CLR,,0.04,WeatherDisplay:10.37,2013-02-06 23:15:00,
2013-02-06 23:20:00,35.9,28.7,30.05,WNW,298,1.1,1.1,75,0.00,CLR,,0.04,WeatherDisplay:10.37,2013-02-06 23:20:00,
2013-02-06 23:25:00,35.6,28.5,30.05,East,79,4.6,4.6,75,0.00,CLR,,0.04,WeatherDisplay:10.37,2013-02-06 23:25:00,
2013-02-06 23:30:00,35.7,28.6,30.05,West,280,1.1,1.1,75,0.00,CLR,,0.04,WeatherDisplay:10.37,2013-02-06 23:30:00,
2013-02-06 23:35:00,35.6,28.5,30.05,North,357,3.5,3.5,75,0.00,CLR,,0.04,WeatherDisplay:10.37,2013-02-06 23:35:00,
2013-02-06 23:40:00,35.4,28.6,30.05,WSW,248,2.3,2.3,76,0.00,CLR,,0.04,WeatherDisplay:10.37,2013-02-06 23:40:00,
2013-02-06 23:45:00,35.4,28.6,30.05,WNW,283,3.5,3.5,76,0.00,CLR,,0.04,WeatherDisplay:10.37,2013-02-06 23:45:00,
2013-02-06 23:50:00,35.4,28.6,30.06,WSW,249,4.6,4.6,76,0.00,CLR,,0.04,WeatherDisplay:10.37,2013-02-06 23:50:00,
2013-02-06 23:55:00,35.3,28.5,30.06,West,278,0.0,0.0,76,0.00,CLR,,0.04,WeatherDisplay:10.37,2013-02-06 23:55:00,